createdAt,value
2023-02-22T00:01:47.584Z,98979.81
2023-02-22T00:04:16.100Z,98969.50
2023-02-22T00:06:42.777Z,98975.28
2023-02-22T00:09:10.380Z,98972.59
2023-02-22T00:11:38.654Z,98965.38
2023-02-22T00:14:05.776Z,98962.53
2023-02-22T00:16:39.589Z,98962.97
2023-02-22T00:19:06.364Z,98960.81
2023-02-22T00:21:33.137Z,98958.16
2023-02-22T00:23:59.832Z,98951.94
2023-02-22T00:26:26.968Z,98955.28
2023-02-22T00:28:54.525Z,98960.56
2023-02-22T00:31:22.055Z,98956.38
2023-02-22T00:33:48.753Z,98951.53
2023-02-22T00:36:15.413Z,98955.28
2023-02-22T00:38:42.518Z,98953.47
2023-02-22T00:41:10.433Z,98949.50
2023-02-22T00:43:37.163Z,98951.94
2023-02-22T00:46:04.018Z,98952.41
2023-02-22T00:48:31.053Z,98948.31
2023-02-22T00:50:57.753Z,98947.59
2023-02-22T00:53:25.980Z,98943.47
2023-02-22T00:55:53.071Z,98942.53
2023-02-22T00:58:20.454Z,98944.94
2023-02-22T01:00:47.580Z,98941.38
2023-02-22T01:03:19.261Z,98938.81
2023-02-22T01:05:47.143Z,98940.38
2023-02-22T01:08:15.817Z,98940.38
2023-02-22T01:10:43.405Z,98931.50
2023-02-22T01:13:12.474Z,98938.25
2023-02-22T01:15:42.010Z,98930.34
2023-02-22T01:18:09.816Z,98929.25
2023-02-22T01:20:37.050Z,98928.41
2023-02-22T01:23:07.030Z,98927.56
2023-02-22T01:25:35.118Z,98923.09
2023-02-22T01:28:04.792Z,98929.34
2023-02-22T01:30:33.648Z,98925.84
2023-02-22T01:33:02.763Z,98923.34
2023-02-22T01:35:34.623Z,98916.38
2023-02-22T01:38:01.558Z,98916.59
2023-02-22T01:40:42.053Z,98916.00
2023-02-22T01:43:34.952Z,98915.16
2023-02-22T01:46:01.562Z,98917.91
2023-02-22T01:48:39.872Z,98917.91
2023-02-22T01:51:12.494Z,98915.41
2023-02-22T01:54:06.028Z,98916.09
2023-02-22T01:56:36.514Z,98917.16
2023-02-22T01:59:08.472Z,98918.69
2023-02-22T02:01:40.323Z,98906.91
2023-02-22T02:04:10.940Z,98913.63
2023-02-22T02:06:38.689Z,98917.22
2023-02-22T02:09:19.248Z,98909.53
2023-02-22T02:11:46.912Z,98913.47
2023-02-22T02:14:14.385Z,98907.97
2023-02-22T02:16:45.961Z,98905.44
2023-02-22T02:19:30.905Z,98900.84
2023-02-22T02:22:25.486Z,98901.91
2023-02-22T02:25:24.515Z,98896.84
2023-02-22T02:28:05.984Z,98901.50
2023-02-22T02:30:41.886Z,98893.72
2023-02-22T02:33:17.397Z,98895.13
2023-02-22T02:35:56.038Z,98893.44
2023-02-22T02:38:34.092Z,98884.28
2023-02-22T02:41:10.898Z,98893.78
2023-02-22T02:43:51.974Z,98884.91
2023-02-22T02:46:26.417Z,98884.16
2023-02-22T02:48:57.743Z,98885.38
2023-02-22T02:51:31.087Z,98885.56
2023-02-22T02:53:58.511Z,98884.13
2023-02-22T02:56:25.512Z,98879.78
2023-02-22T02:58:53.936Z,98879.16
2023-02-22T03:01:25.899Z,98871.94
2023-02-22T03:04:20.497Z,98873.22
2023-02-22T03:06:49.980Z,98869.22
2023-02-22T03:09:25.810Z,98865.25
2023-02-22T03:12:07.970Z,98855.13
2023-02-22T03:15:00.407Z,98859.03
2023-02-22T03:17:51.219Z,98867.28
2023-02-22T03:20:31.587Z,98863.88
2023-02-22T03:23:11.194Z,98862.22
2023-02-22T03:25:43.528Z,98857.06
2023-02-22T03:28:14.313Z,98853.59
2023-02-22T03:31:04.459Z,98856.41
2023-02-22T03:33:41.730Z,98854.88
2023-02-22T03:36:21.853Z,98855.19
2023-02-22T03:38:50.096Z,98836.41
2023-02-22T03:41:24.079Z,98840.84
2023-02-22T03:43:56.342Z,98835.97
2023-02-22T03:46:24.285Z,98837.53
2023-02-22T03:49:09.398Z,98838.50
2023-02-22T03:51:36.700Z,98838.06
2023-02-22T03:54:04.761Z,98838.28
2023-02-22T03:56:47.182Z,98846.28
2023-02-22T03:59:14.776Z,98843.53
2023-02-22T04:01:41.436Z,98848.28
2023-02-22T04:04:08.274Z,98839.53
2023-02-22T04:06:34.903Z,98853.66
2023-02-22T04:09:01.577Z,98852.59
2023-02-22T04:11:28.480Z,98845.53
2023-02-22T04:13:55.144Z,98855.94
2023-02-22T04:16:21.820Z,98846.69
2023-02-22T04:18:48.418Z,98848.22
2023-02-22T04:21:15.255Z,98843.25
2023-02-22T04:23:42.034Z,98846.53
2023-02-22T04:26:08.677Z,98845.25
2023-02-22T04:28:35.314Z,98845.09
2023-02-22T04:31:01.987Z,98840.94
2023-02-22T04:33:28.559Z,98837.97
2023-02-22T04:35:57.782Z,98839.78
2023-02-22T04:38:26.142Z,98836.06
2023-02-22T04:40:54.101Z,98834.91
2023-02-22T04:43:20.799Z,98837.53
2023-02-22T04:45:47.575Z,98835.31
2023-02-22T04:48:14.211Z,98832.56
2023-02-22T04:50:41.022Z,98833.50
2023-02-22T04:53:07.708Z,98830.25
2023-02-22T04:55:34.345Z,98833.41
2023-02-22T04:58:01.106Z,98828.97
2023-02-22T05:00:27.978Z,98829.81
2023-02-22T05:02:54.636Z,98825.84
2023-02-22T05:05:22.137Z,98819.69
2023-02-22T05:07:49.687Z,98821.38
2023-02-22T05:10:17.049Z,98819.03
2023-02-22T05:12:43.716Z,98817.94
2023-02-22T05:15:11.083Z,98821.16
2023-02-22T05:17:37.669Z,98815.78
2023-02-22T05:20:05.638Z,98818.63
2023-02-22T05:22:32.308Z,98821.63
2023-02-22T05:24:58.892Z,98818.38
2023-02-22T05:27:25.546Z,98815.94
2023-02-22T05:29:52.158Z,98816.38
2023-02-22T05:32:18.834Z,98817.31
2023-02-22T05:34:45.741Z,98813.47
2023-02-22T05:37:12.411Z,98823.03
2023-02-22T05:39:39.314Z,98812.63
2023-02-22T05:42:05.979Z,98811.38
2023-02-22T05:44:32.623Z,98819.38
2023-02-22T05:46:59.244Z,98816.22
2023-02-22T05:49:25.891Z,98812.44
2023-02-22T05:51:52.506Z,98806.97
2023-02-22T05:54:19.119Z,98809.47
2023-02-22T05:56:45.729Z,98807.41
2023-02-22T05:59:12.303Z,98803.69
2023-02-22T06:01:38.877Z,98807.19
2023-02-22T06:04:05.616Z,98803.59
2023-02-22T06:06:32.243Z,98800.78
2023-02-22T06:08:58.945Z,98804.03
2023-02-22T06:11:25.631Z,98804.44
2023-02-22T06:13:53.610Z,98799.81
2023-02-22T06:16:21.901Z,98802.66
2023-02-22T06:18:49.022Z,98800.56
2023-02-22T06:21:15.960Z,98803.00
2023-02-22T06:23:42.962Z,98801.94
2023-02-22T06:26:09.851Z,98804.66
2023-02-22T06:28:36.823Z,98808.13
2023-02-22T06:31:03.798Z,98810.16
2023-02-22T06:33:30.553Z,98809.63
2023-02-22T06:35:57.210Z,98812.03
2023-02-22T06:38:25.389Z,98817.53
2023-02-22T06:40:52.175Z,98811.00
2023-02-22T06:43:19.007Z,98819.84
2023-02-22T06:45:45.800Z,98810.78
2023-02-22T06:48:12.925Z,98817.59
2023-02-22T06:50:39.628Z,98809.38
2023-02-22T06:53:06.410Z,98813.91
2023-02-22T06:55:34.823Z,98824.63
2023-02-22T06:58:02.662Z,98823.59
2023-02-22T07:00:31.015Z,98822.34
2023-02-22T07:02:59.112Z,98831.78
2023-02-22T07:05:27.087Z,98840.41
2023-02-22T07:07:55.598Z,98834.63
2023-02-22T07:10:26.631Z,98834.09
2023-02-22T07:12:53.788Z,98831.59
2023-02-22T07:15:24.909Z,98825.91
2023-02-22T07:17:52.611Z,98832.63
2023-02-22T07:20:20.849Z,98833.06
2023-02-22T07:22:48.849Z,98839.81
2023-02-22T07:25:15.690Z,98836.00
2023-02-22T07:27:43.313Z,98833.00
2023-02-22T07:30:28.063Z,98831.84
2023-02-22T07:32:55.631Z,98831.97
2023-02-22T07:35:25.773Z,98834.28
2023-02-22T07:37:55.760Z,98835.88
2023-02-22T07:40:24.059Z,98833.31
2023-02-22T07:43:02.167Z,98828.06
2023-02-22T07:45:31.537Z,98832.91
2023-02-22T07:47:58.629Z,98832.91
2023-02-22T07:50:26.776Z,98830.38
2023-02-22T07:52:56.260Z,98834.38
2023-02-22T07:55:24.216Z,98842.28
2023-02-22T07:57:52.696Z,98832.25
2023-02-22T08:00:28.398Z,98834.69
2023-02-22T08:02:55.660Z,98827.72
2023-02-22T08:05:24.755Z,98834.88
2023-02-22T08:07:51.516Z,98834.78
2023-02-22T08:10:20.108Z,98827.63
2023-02-22T08:12:46.828Z,98829.31
2023-02-22T08:15:19.674Z,98836.16
2023-02-22T08:17:46.297Z,98829.94
2023-02-22T08:20:13.641Z,98827.41
2023-02-22T08:22:43.395Z,98826.44
2023-02-22T08:25:10.333Z,98825.94
2023-02-22T08:27:37.027Z,98825.28
2023-02-22T08:30:04.463Z,98819.56
2023-02-22T08:32:31.229Z,98825.59
2023-02-22T08:34:57.962Z,98819.69
2023-02-22T08:37:24.602Z,98818.31
2023-02-22T08:39:53.698Z,98819.34
2023-02-22T08:42:20.291Z,98826.72
2023-02-22T08:44:46.989Z,98822.47
2023-02-22T08:47:14.118Z,98819.00
2023-02-22T08:49:42.199Z,98813.81
2023-02-22T08:52:09.364Z,98821.06
2023-02-22T08:54:36.143Z,98821.84
2023-02-22T08:57:02.807Z,98819.06
2023-02-22T08:59:29.550Z,98815.19
2023-02-22T09:01:56.170Z,98814.06
2023-02-22T09:04:22.782Z,98810.38
2023-02-22T09:06:51.885Z,98816.88
2023-02-22T09:09:21.436Z,98810.97
2023-02-22T09:11:48.510Z,98805.88
2023-02-22T09:14:16.559Z,98813.91
2023-02-22T09:16:45.351Z,98802.56
2023-02-22T09:19:12.430Z,98802.84
2023-02-22T09:21:40.364Z,98801.56
2023-02-22T09:24:10.946Z,98798.34
2023-02-22T09:26:47.318Z,98795.22
2023-02-22T09:29:14.289Z,98791.41
2023-02-22T09:31:41.754Z,98795.28
2023-02-22T09:34:15.480Z,98787.00
2023-02-22T09:36:43.627Z,98786.88
2023-02-22T09:39:11.480Z,98784.66
2023-02-22T09:41:50.405Z,98789.59
2023-02-22T09:44:36.278Z,98780.44
2023-02-22T09:47:04.647Z,98779.38
2023-02-22T09:49:39.880Z,98783.56
2023-02-22T09:52:06.602Z,98777.34
2023-02-22T09:55:05.671Z,98780.94
2023-02-22T09:57:37.082Z,98777.34
2023-02-22T10:00:13.614Z,98771.84
2023-02-22T10:03:01.427Z,98765.72
2023-02-22T10:05:37.651Z,98769.19
2023-02-22T10:08:10.269Z,98757.88
2023-02-22T10:10:41.218Z,98753.34
2023-02-22T10:13:27.250Z,98753.78
2023-02-22T10:16:10.848Z,98744.38
2023-02-22T10:18:40.260Z,98742.81
2023-02-22T10:21:13.170Z,98739.59
2023-02-22T10:23:49.120Z,98740.63
2023-02-22T10:26:22.538Z,98741.34
2023-02-22T10:29:19.471Z,98744.38
2023-02-22T10:31:52.061Z,98732.56
2023-02-22T10:34:24.985Z,98728.34
2023-02-22T10:36:59.349Z,98724.81
2023-02-22T10:39:35.076Z,98721.16
2023-02-22T10:42:08.464Z,98711.41
2023-02-22T10:44:36.151Z,98714.44
2023-02-22T10:47:06.425Z,98709.72
2023-02-22T10:49:39.210Z,98708.81
2023-02-22T10:52:19.444Z,98699.78
2023-02-22T10:54:50.438Z,98698.13
2023-02-22T10:57:22.956Z,98694.44
2023-02-22T10:59:52.079Z,98694.75
2023-02-22T11:02:30.834Z,98697.63
2023-02-22T11:05:00.981Z,98690.47
2023-02-22T11:07:29.664Z,98690.13
2023-02-22T11:10:05.653Z,98685.53
2023-02-22T11:12:42.413Z,98686.66
2023-02-22T11:15:22.367Z,98687.53
2023-02-22T11:17:52.441Z,98681.38
2023-02-22T11:20:25.508Z,98680.03
2023-02-22T11:22:54.798Z,98671.94
2023-02-22T11:25:27.270Z,98672.78
2023-02-22T11:27:54.688Z,98669.56
2023-02-22T11:30:33.142Z,98656.56
2023-02-22T11:33:06.439Z,98656.56
2023-02-22T11:35:37.766Z,98646.88
2023-02-22T11:38:28.906Z,98652.84
2023-02-22T11:41:08.151Z,98640.22
2023-02-22T11:43:35.456Z,98641.91
2023-02-22T11:46:18.808Z,98636.00
2023-02-22T11:49:13.058Z,98620.72
2023-02-22T11:52:01.302Z,98620.22
2023-02-22T11:54:36.831Z,98622.66
2023-02-22T11:57:22.352Z,98613.13
2023-02-22T12:00:12.320Z,98613.63
2023-02-22T12:02:59.150Z,98618.53
2023-02-22T12:05:42.736Z,98606.47
2023-02-22T12:08:36.668Z,98604.88
2023-02-22T12:11:25.199Z,98594.34
2023-02-22T12:14:19.277Z,98596.00
2023-02-22T12:17:19.674Z,98587.16
2023-02-22T12:19:53.471Z,98589.94
2023-02-22T12:22:33.538Z,98593.88
2023-02-22T12:25:16.191Z,98587.38
2023-02-22T12:27:49.318Z,98588.84
2023-02-22T12:30:34.176Z,98575.94
2023-02-22T12:33:07.069Z,98581.06
2023-02-22T12:35:37.666Z,98574.94
2023-02-22T12:38:18.220Z,98574.28
2023-02-22T12:40:57.254Z,98564.34
2023-02-22T12:44:20.311Z,98567.53
2023-02-22T12:46:53.424Z,98560.19
2023-02-22T12:49:47.777Z,98561.84
2023-02-22T12:52:25.339Z,98566.34
2023-02-22T12:55:25.329Z,98569.81
2023-02-22T12:58:21.792Z,98563.84
2023-02-22T13:00:51.278Z,98560.53
2023-02-22T13:03:26.963Z,98560.91
2023-02-22T13:06:23.210Z,98554.59
2023-02-22T13:09:16.950Z,98555.25
2023-02-22T13:12:13.000Z,98553.94
2023-02-22T13:14:59.019Z,98551.06
2023-02-22T13:17:44.208Z,98555.59
2023-02-22T13:20:33.296Z,98545.75
2023-02-22T13:23:05.496Z,98540.06
2023-02-22T13:25:39.042Z,98544.56
2023-02-22T13:28:21.818Z,98537.88
2023-02-22T13:31:03.756Z,98540.88
2023-02-22T13:33:33.194Z,98538.84
2023-02-22T13:36:19.981Z,98537.34
2023-02-22T13:39:20.680Z,98533.50
2023-02-22T13:41:52.260Z,98540.16
2023-02-22T13:44:27.775Z,98536.19
2023-02-22T13:47:07.886Z,98532.28
2023-02-22T13:50:06.407Z,98525.75
2023-02-22T13:52:38.971Z,98526.91
2023-02-22T13:55:14.988Z,98521.69
2023-02-22T13:57:51.801Z,98532.75
2023-02-22T14:00:23.092Z,98527.13
2023-02-22T14:02:59.052Z,98526.22
2023-02-22T14:05:36.397Z,98525.38
2023-02-22T14:08:03.657Z,98526.22
2023-02-22T14:10:48.458Z,98527.56
2023-02-22T14:13:17.792Z,98519.19
2023-02-22T14:16:02.908Z,98521.19
2023-02-22T14:18:44.791Z,98520.19
2023-02-22T14:21:17.370Z,98510.16
2023-02-22T14:23:46.115Z,98513.13
2023-02-22T14:26:29.830Z,98505.44
2023-02-22T14:29:02.940Z,98510.34
2023-02-22T14:31:37.495Z,98507.47
2023-02-22T14:34:06.409Z,98514.63
2023-02-22T14:36:41.863Z,98508.09
2023-02-22T14:39:14.226Z,98513.44
2023-02-22T14:41:47.964Z,98505.03
2023-02-22T14:44:21.117Z,98510.09
2023-02-22T14:46:50.145Z,98502.72
2023-02-22T14:49:21.238Z,98496.72
2023-02-22T14:51:58.622Z,98493.94
2023-02-22T14:55:05.832Z,98504.81
2023-02-22T14:57:46.390Z,98499.13
2023-02-22T15:00:22.716Z,98496.31
2023-02-22T15:02:53.692Z,98494.13
2023-02-22T15:05:20.962Z,98491.66
2023-02-22T15:07:54.444Z,98490.81
2023-02-22T15:10:26.111Z,98490.66
2023-02-22T15:13:09.130Z,98488.34
2023-02-22T15:15:47.619Z,98488.19
2023-02-22T15:18:43.422Z,98485.88
2023-02-22T15:21:13.550Z,98490.69
2023-02-22T15:23:56.413Z,98481.50
2023-02-22T15:26:51.851Z,98488.69
2023-02-22T15:29:26.040Z,98482.34
2023-02-22T15:31:56.463Z,98483.47
2023-02-22T15:34:33.369Z,98481.81
2023-02-22T15:37:22.374Z,98481.81
2023-02-22T15:39:49.110Z,98475.81
2023-02-22T15:42:21.123Z,98476.97
2023-02-22T15:44:52.474Z,98478.81
2023-02-22T15:47:22.472Z,98480.78
2023-02-22T15:50:17.003Z,98469.94
2023-02-22T15:52:53.286Z,98469.75
2023-02-22T15:55:25.700Z,98467.94
2023-02-22T15:57:53.120Z,98466.41
2023-02-22T16:00:36.145Z,98463.94
2023-02-22T16:03:06.787Z,98469.09
2023-02-22T16:05:46.714Z,98469.06
2023-02-22T16:08:21.704Z,98470.03
2023-02-22T16:11:15.029Z,98467.34
2023-02-22T16:13:42.870Z,98463.66
2023-02-22T16:16:22.403Z,98466.81
2023-02-22T16:18:50.632Z,98464.16
2023-02-22T16:21:21.691Z,98460.28
2023-02-22T16:23:55.983Z,98460.47
2023-02-22T16:26:35.040Z,98463.56
2023-02-22T16:29:08.234Z,98472.16
2023-02-22T16:31:37.319Z,98462.78
2023-02-22T16:34:06.910Z,98471.56
2023-02-22T16:36:46.318Z,98467.34
2023-02-22T16:39:29.570Z,98470.94
2023-02-22T16:42:01.987Z,98474.06
2023-02-22T16:44:28.970Z,98476.88
2023-02-22T16:46:59.391Z,98480.53
2023-02-22T16:49:26.800Z,98464.50
2023-02-22T16:51:59.898Z,98476.44
2023-02-22T16:54:30.017Z,98471.53
2023-02-22T16:57:00.372Z,98470.47
2023-02-22T16:59:27.052Z,98478.63
2023-02-22T17:01:53.899Z,98480.66
2023-02-22T17:04:26.607Z,98481.00
2023-02-22T17:06:53.557Z,98477.13
2023-02-22T17:09:20.264Z,98482.22
2023-02-22T17:11:50.263Z,98492.63
2023-02-22T17:14:19.371Z,98496.88
2023-02-22T17:16:48.753Z,98492.44
2023-02-22T17:19:16.458Z,98500.94
2023-02-22T17:21:43.382Z,98502.50
2023-02-22T17:24:14.821Z,98499.28
2023-02-22T17:26:42.003Z,98500.44
2023-02-22T17:29:08.719Z,98503.81
2023-02-22T17:31:35.534Z,98502.72
2023-02-22T17:34:04.735Z,98507.13
2023-02-22T17:36:33.381Z,98512.59
2023-02-22T17:39:00.586Z,98521.06
2023-02-22T17:41:27.247Z,98514.94
2023-02-22T17:43:54.416Z,98516.06
2023-02-22T17:46:21.313Z,98512.19
2023-02-22T17:48:54.081Z,98522.28
2023-02-22T17:51:22.881Z,98512.81
2023-02-22T17:53:49.474Z,98511.28
2023-02-22T17:56:18.912Z,98519.25
2023-02-22T17:58:46.747Z,98514.63
2023-02-22T18:01:27.124Z,98519.94
2023-02-22T18:03:59.676Z,98521.47
2023-02-22T18:06:29.977Z,98527.06
2023-02-22T18:08:59.158Z,98522.03
2023-02-22T18:11:28.163Z,98518.09
2023-02-22T18:13:56.637Z,98518.91
2023-02-22T18:16:25.979Z,98514.75
2023-02-22T18:18:52.867Z,98518.63
2023-02-22T18:21:19.503Z,98520.84
2023-02-22T18:23:46.346Z,98532.25
2023-02-22T18:26:21.354Z,98527.94
2023-02-22T18:28:48.775Z,98529.06
2023-02-22T18:31:18.195Z,98529.72
2023-02-22T18:33:46.354Z,98538.03
2023-02-22T18:36:14.357Z,98537.19
2023-02-22T18:38:44.800Z,98533.16
2023-02-22T18:41:13.685Z,98534.66
2023-02-22T18:43:41.502Z,98532.13
2023-02-22T18:46:13.790Z,98532.13
2023-02-22T18:48:40.614Z,98536.03
2023-02-22T18:51:13.569Z,98529.34
2023-02-22T18:53:46.653Z,98529.03
2023-02-22T18:56:22.007Z,98536.38
2023-02-22T18:58:56.272Z,98533.19
2023-02-22T19:01:23.096Z,98526.75
2023-02-22T19:03:50.164Z,98530.97
2023-02-22T19:06:18.710Z,98520.94
2023-02-22T19:08:47.166Z,98524.81
2023-02-22T19:11:18.007Z,98527.03
2023-02-22T19:13:49.247Z,98532.31
2023-02-22T19:16:21.860Z,98530.41
2023-02-22T19:18:50.876Z,98535.09
2023-02-22T19:21:17.964Z,98539.56
2023-02-22T19:23:48.650Z,98538.59
2023-02-22T19:26:19.741Z,98530.97
2023-02-22T19:28:48.214Z,98532.22
2023-02-22T19:31:18.408Z,98540.88
2023-02-22T19:33:47.643Z,98534.16
2023-02-22T19:36:15.205Z,98541.66
2023-02-22T19:38:42.901Z,98539.97
2023-02-22T19:41:12.488Z,98538.56
2023-02-22T19:43:39.491Z,98535.47
2023-02-22T19:46:07.480Z,98540.75
2023-02-22T19:48:34.706Z,98535.72
2023-02-22T19:51:14.215Z,98534.56
2023-02-22T19:53:41.966Z,98531.47
2023-02-22T19:56:10.525Z,98536.75
2023-02-22T19:58:41.291Z,98537.16
2023-02-22T20:01:15.988Z,98540.63
2023-02-22T20:03:42.977Z,98536.81
2023-02-22T20:06:11.535Z,98537.56
2023-02-22T20:08:42.173Z,98542.00
2023-02-22T20:11:10.539Z,98533.53
2023-02-22T20:13:38.655Z,98538.09
2023-02-22T20:16:05.887Z,98545.31
2023-02-22T20:18:32.707Z,98541.84
2023-02-22T20:20:59.332Z,98544.47
2023-02-22T20:23:26.164Z,98536.66
2023-02-22T20:25:55.078Z,98541.59
2023-02-22T20:28:22.755Z,98547.00
2023-02-22T20:30:51.576Z,98544.50
2023-02-22T20:33:21.772Z,98546.91
2023-02-22T20:35:48.461Z,98543.44
2023-02-22T20:38:15.225Z,98547.75
2023-02-22T20:40:42.604Z,98557.31
2023-02-22T20:43:10.095Z,98549.50
2023-02-22T20:45:38.339Z,98557.91
2023-02-22T20:48:05.776Z,98550.25
2023-02-22T20:50:34.592Z,98551.59
2023-02-22T20:53:01.255Z,98552.41
2023-02-22T20:55:27.786Z,98543.78
2023-02-22T20:57:54.465Z,98547.84
2023-02-22T21:00:21.108Z,98541.84
2023-02-22T21:02:47.793Z,98544.13
2023-02-22T21:05:14.700Z,98546.66
2023-02-22T21:07:41.318Z,98544.50
2023-02-22T21:10:08.254Z,98550.28
2023-02-22T21:12:35.270Z,98548.59
2023-02-22T21:15:01.965Z,98553.66
2023-02-22T21:17:31.381Z,98551.13
2023-02-22T21:19:58.588Z,98543.56
2023-02-22T21:22:25.622Z,98543.81
2023-02-22T21:24:53.308Z,98547.41
2023-02-22T21:27:19.949Z,98540.47
2023-02-22T21:29:46.784Z,98540.69
2023-02-22T21:32:13.906Z,98540.81
2023-02-22T21:34:40.982Z,98539.97
2023-02-22T21:37:08.374Z,98543.72
2023-02-22T21:39:35.561Z,98539.38
2023-02-22T21:42:02.763Z,98542.59
2023-02-22T21:44:29.970Z,98536.84
2023-02-22T21:46:57.193Z,98536.63
2023-02-22T21:49:23.972Z,98540.69
2023-02-22T21:51:52.524Z,98538.75
2023-02-22T21:54:19.622Z,98541.19
2023-02-22T21:56:46.350Z,98534.44
2023-02-22T21:59:22.556Z,98539.72
2023-02-22T22:01:56.454Z,98538.88
2023-02-22T22:04:27.611Z,98537.69
2023-02-22T22:06:56.617Z,98532.28
2023-02-22T22:09:24.276Z,98533.94
2023-02-22T22:12:00.280Z,98530.84
2023-02-22T22:14:28.149Z,98533.59
2023-02-22T22:16:59.733Z,98524.16
2023-02-22T22:19:30.712Z,98524.63
2023-02-22T22:21:58.201Z,98536.84
2023-02-22T22:24:25.381Z,98528.94
2023-02-22T22:26:55.502Z,98534.94
2023-02-22T22:29:24.501Z,98527.38
2023-02-22T22:31:51.913Z,98530.16
2023-02-22T22:34:19.565Z,98535.41
2023-02-22T22:36:46.613Z,98535.41
2023-02-22T22:39:13.301Z,98541.81
2023-02-22T22:41:44.277Z,98537.97
2023-02-22T22:44:15.492Z,98536.16
2023-02-22T22:46:43.435Z,98544.44
2023-02-22T22:49:12.203Z,98536.38
2023-02-22T22:51:41.052Z,98538.44
2023-02-22T22:54:09.567Z,98542.13
2023-02-22T22:56:37.989Z,98543.25
2023-02-22T22:59:08.397Z,98539.03
2023-02-22T23:01:40.071Z,98538.66
2023-02-22T23:04:10.639Z,98536.75
2023-02-22T23:06:43.766Z,98527.88
2023-02-22T23:09:18.627Z,98533.88
2023-02-22T23:11:50.629Z,98540.47
2023-02-22T23:14:24.243Z,98538.31
2023-02-22T23:16:53.334Z,98532.34
2023-02-22T23:19:20.359Z,98533.50
2023-02-22T23:21:48.536Z,98533.50
2023-02-22T23:24:17.013Z,98532.56
2023-02-22T23:26:50.871Z,98544.91
2023-02-22T23:29:19.778Z,98549.13
2023-02-22T23:31:48.617Z,98545.53
2023-02-22T23:34:21.279Z,98543.84
2023-02-22T23:36:48.596Z,98541.09
2023-02-22T23:39:22.071Z,98550.53
2023-02-22T23:41:54.176Z,98547.78
2023-02-22T23:44:21.981Z,98552.22
2023-02-22T23:46:55.166Z,98551.63
2023-02-22T23:49:26.444Z,98545.38
2023-02-22T23:51:53.508Z,98544.78
2023-02-22T23:54:21.354Z,98544.78
2023-02-22T23:56:57.937Z,98550.31
2023-02-22T23:59:26.762Z,98552.97
